sensor_id;sensor_type;location;lat;lon;timestamp;pressure;altitude;pressure_sealevel;temperature;humidity
48563;BME280;34981;49.104;11.396;2023-04-27T00:00:55;96819.75;;;4.83;100.00
48563;BME280;34981;49.104;11.396;2023-04-27T00:03:22;96805.47;;;4.70;100.00
48563;BME280;34981;49.104;11.396;2023-04-27T00:05:49;96819.84;;;4.63;100.00
48563;BME280;34981;49.104;11.396;2023-04-27T00:08:17;96838.72;;;4.55;100.00
48563;BME280;34981;49.104;11.396;2023-04-27T00:10:44;96862.47;;;4.56;100.00
48563;BME280;34981;49.104;11.396;2023-04-27T00:13:12;96907.13;;;4.54;100.00
48563;BME280;34981;49.104;11.396;2023-04-27T00:15:39;96926.59;;;4.48;100.00
48563;BME280;34981;49.104;11.396;2023-04-27T00:18:06;96959.56;;;4.54;100.00
48563;BME280;34981;49.104;11.396;2023-04-27T00:20:34;96995.00;;;4.67;100.00
48563;BME280;34981;49.104;11.396;2023-04-27T00:23:01;96988.03;;;4.66;100.00
48563;BME280;34981;49.104;11.396;2023-04-27T00:25:28;96965.28;;;4.64;100.00
48563;BME280;34981;49.104;11.396;2023-04-27T00:27:55;96965.69;;;4.67;100.00
48563;BME280;34981;49.104;11.396;2023-04-27T00:30:23;96943.16;;;4.63;100.00
48563;BME280;34981;49.104;11.396;2023-04-27T00:32:52;96919.38;;;4.62;100.00
48563;BME280;34981;49.104;11.396;2023-04-27T00:35:19;96913.69;;;4.58;100.00
48563;BME280;34981;49.104;11.396;2023-04-27T00:37:47;96920.22;;;4.62;100.00
48563;BME280;34981;49.104;11.396;2023-04-27T00:40:14;96932.09;;;4.66;100.00
48563;BME280;34981;49.104;11.396;2023-04-27T00:42:41;96928.41;;;4.67;100.00
48563;BME280;34981;49.104;11.396;2023-04-27T00:45:08;96918.56;;;4.68;100.00
48563;BME280;34981;49.104;11.396;2023-04-27T00:47:36;96921.06;;;4.56;100.00
48563;BME280;34981;49.104;11.396;2023-04-27T00:50:03;96933.97;;;4.59;100.00
48563;BME280;34981;49.104;11.396;2023-04-27T00:52:37;96916.94;;;4.60;100.00
48563;BME280;34981;49.104;11.396;2023-04-27T00:55:05;96909.56;;;4.62;100.00
48563;BME280;34981;49.104;11.396;2023-04-27T00:57:32;96879.28;;;4.57;100.00
48563;BME280;34981;49.104;11.396;2023-04-27T00:59:59;96868.63;;;4.57;100.00
48563;BME280;34981;49.104;11.396;2023-04-27T01:02:27;96869.81;;;4.61;100.00
48563;BME280;34981;49.104;11.396;2023-04-27T01:04:56;96847.34;;;4.50;100.00
48563;BME280;34981;49.104;11.396;2023-04-27T01:07:23;96850.63;;;4.52;100.00
48563;BME280;34981;49.104;11.396;2023-04-27T01:09:50;96873.94;;;4.57;100.00
48563;BME280;34981;49.104;11.396;2023-04-27T01:12:18;96879.44;;;4.62;100.00
48563;BME280;34981;49.104;11.396;2023-04-27T01:14:45;96874.75;;;4.57;100.00
48563;BME280;34981;49.104;11.396;2023-04-27T01:17:12;96884.59;;;4.57;100.00
48563;BME280;34981;49.104;11.396;2023-04-27T01:19:40;96854.53;;;4.37;100.00
48563;BME280;34981;49.104;11.396;2023-04-27T01:22:07;96888.31;;;4.43;100.00
48563;BME280;34981;49.104;11.396;2023-04-27T01:24:34;96880.34;;;4.36;100.00
48563;BME280;34981;49.104;11.396;2023-04-27T01:27:04;96896.72;;;4.26;100.00
48563;BME280;34981;49.104;11.396;2023-04-27T01:29:31;96915.56;;;4.25;100.00
48563;BME280;34981;49.104;11.396;2023-04-27T01:31:58;96925.63;;;4.23;100.00
48563;BME280;34981;49.104;11.396;2023-04-27T01:34:25;96957.94;;;4.40;100.00
48563;BME280;34981;49.104;11.396;2023-04-27T01:36:52;96972.28;;;4.45;100.00
48563;BME280;34981;49.104;11.396;2023-04-27T01:39:20;96954.66;;;4.44;100.00
48563;BME280;34981;49.104;11.396;2023-04-27T01:41:47;96932.31;;;4.39;100.00
48563;BME280;34981;49.104;11.396;2023-04-27T01:44:14;96927.25;;;4.37;100.00
48563;BME280;34981;49.104;11.396;2023-04-27T01:46:42;96938.06;;;4.42;100.00
48563;BME280;34981;49.104;11.396;2023-04-27T01:49:09;96905.16;;;4.23;100.00
48563;BME280;34981;49.104;11.396;2023-04-27T01:51:36;96934.19;;;4.25;100.00
48563;BME280;34981;49.104;11.396;2023-04-27T01:54:03;96949.13;;;4.32;100.00
48563;BME280;34981;49.104;11.396;2023-04-27T01:56:30;96962.84;;;4.36;100.00
48563;BME280;34981;49.104;11.396;2023-04-27T01:58:57;96963.25;;;4.40;100.00
48563;BME280;34981;49.104;11.396;2023-04-27T02:01:25;96970.22;;;4.41;100.00
48563;BME280;34981;49.104;11.396;2023-04-27T02:03:52;96957.75;;;4.35;100.00
48563;BME280;34981;49.104;11.396;2023-04-27T02:06:19;96949.75;;;4.28;100.00
48563;BME280;34981;49.104;11.396;2023-04-27T02:08:46;96962.88;;;4.23;100.00
48563;BME280;34981;49.104;11.396;2023-04-27T02:11:14;96976.78;;;4.12;100.00
48563;BME280;34981;49.104;11.396;2023-04-27T02:13:42;96963.66;;;3.97;100.00
48563;BME280;34981;49.104;11.396;2023-04-27T02:16:09;96981.06;;;4.06;100.00
48563;BME280;34981;49.104;11.396;2023-04-27T02:18:36;96977.59;;;4.06;100.00
48563;BME280;34981;49.104;11.396;2023-04-27T02:21:08;96959.59;;;4.01;100.00
48563;BME280;34981;49.104;11.396;2023-04-27T02:23:36;96937.06;;;3.90;100.00
48563;BME280;34981;49.104;11.396;2023-04-27T02:26:03;96918.19;;;3.66;100.00
48563;BME280;34981;49.104;11.396;2023-04-27T02:28:30;96941.53;;;3.57;100.00
48563;BME280;34981;49.104;11.396;2023-04-27T02:30:59;96988.41;;;3.84;100.00
48563;BME280;34981;49.104;11.396;2023-04-27T02:33:27;97006.22;;;3.90;100.00
48563;BME280;34981;49.104;11.396;2023-04-27T02:35:56;96973.84;;;3.80;100.00
48563;BME280;34981;49.104;11.396;2023-04-27T02:38:23;96959.50;;;3.55;100.00
48563;BME280;34981;49.104;11.396;2023-04-27T02:40:53;96969.28;;;3.41;100.00
48563;BME280;34981;49.104;11.396;2023-04-27T02:43:21;96999.75;;;3.52;100.00
48563;BME280;34981;49.104;11.396;2023-04-27T02:45:48;97022.13;;;3.64;100.00
48563;BME280;34981;49.104;11.396;2023-04-27T02:48:15;97031.50;;;3.67;100.00
48563;BME280;34981;49.104;11.396;2023-04-27T02:50:43;97012.22;;;3.45;100.00
48563;BME280;34981;49.104;11.396;2023-04-27T02:53:10;97005.84;;;3.33;100.00
48563;BME280;34981;49.104;11.396;2023-04-27T02:55:43;97043.13;;;3.52;100.00
48563;BME280;34981;49.104;11.396;2023-04-27T02:58:12;97050.31;;;3.59;100.00
48563;BME280;34981;49.104;11.396;2023-04-27T03:00:39;97033.91;;;3.48;100.00
48563;BME280;34981;49.104;11.396;2023-04-27T03:03:07;97035.56;;;3.49;100.00
48563;BME280;34981;49.104;11.396;2023-04-27T03:05:35;97022.28;;;3.49;100.00
48563;BME280;34981;49.104;11.396;2023-04-27T03:08:04;97008.28;;;3.28;100.00
48563;BME280;34981;49.104;11.396;2023-04-27T03:10:31;97000.66;;;3.18;100.00
48563;BME280;34981;49.104;11.396;2023-04-27T03:13:00;97035.25;;;3.31;100.00
48563;BME280;34981;49.104;11.396;2023-04-27T03:15:27;97031.00;;;3.37;100.00
48563;BME280;34981;49.104;11.396;2023-04-27T03:17:54;96995.31;;;3.11;100.00
48563;BME280;34981;49.104;11.396;2023-04-27T03:20:21;96973.94;;;2.85;100.00
48563;BME280;34981;49.104;11.396;2023-04-27T03:22:49;96985.75;;;2.76;100.00
48563;BME280;34981;49.104;11.396;2023-04-27T03:25:18;97011.66;;;2.74;100.00
48563;BME280;34981;49.104;11.396;2023-04-27T03:27:45;97074.97;;;3.05;100.00
48563;BME280;34981;49.104;11.396;2023-04-27T03:30:12;97059.38;;;2.95;100.00
48563;BME280;34981;49.104;11.396;2023-04-27T03:32:40;97092.97;;;3.09;100.00
48563;BME280;34981;49.104;11.396;2023-04-27T03:35:07;97101.00;;;3.16;100.00
48563;BME280;34981;49.104;11.396;2023-04-27T03:37:35;97108.25;;;3.01;100.00
48563;BME280;34981;49.104;11.396;2023-04-27T03:40:03;97124.50;;;3.12;100.00
48563;BME280;34981;49.104;11.396;2023-04-27T03:42:33;97101.66;;;2.90;100.00
48563;BME280;34981;49.104;11.396;2023-04-27T03:45:00;97132.75;;;2.96;100.00
48563;BME280;34981;49.104;11.396;2023-04-27T03:47:28;97136.25;;;3.03;100.00
48563;BME280;34981;49.104;11.396;2023-04-27T03:49:56;97151.88;;;3.13;100.00
48563;BME280;34981;49.104;11.396;2023-04-27T03:52:23;97119.38;;;2.83;100.00
48563;BME280;34981;49.104;11.396;2023-04-27T03:54:50;97118.94;;;2.58;100.00
48563;BME280;34981;49.104;11.396;2023-04-27T03:57:17;97128.50;;;2.53;100.00
48563;BME280;34981;49.104;11.396;2023-04-27T03:59:45;97145.56;;;2.44;100.00
48563;BME280;34981;49.104;11.396;2023-04-27T04:02:12;97197.50;;;2.74;100.00
48563;BME280;34981;49.104;11.396;2023-04-27T04:04:40;97195.22;;;2.71;100.00
48563;BME280;34981;49.104;11.396;2023-04-27T04:07:08;97222.28;;;2.81;100.00
48563;BME280;34981;49.104;11.396;2023-04-27T04:09:35;97189.28;;;2.48;100.00
48563;BME280;34981;49.104;11.396;2023-04-27T04:12:02;97200.97;;;2.32;100.00
48563;BME280;34981;49.104;11.396;2023-04-27T04:14:30;97204.63;;;2.31;100.00
48563;BME280;34981;49.104;11.396;2023-04-27T04:16:57;97213.75;;;2.28;100.00
48563;BME280;34981;49.104;11.396;2023-04-27T04:19:24;97237.78;;;2.42;100.00
48563;BME280;34981;49.104;11.396;2023-04-27T04:21:51;97236.97;;;2.41;100.00
48563;BME280;34981;49.104;11.396;2023-04-27T04:24:20;97241.84;;;2.38;100.00
48563;BME280;34981;49.104;11.396;2023-04-27T04:26:47;97264.88;;;2.52;100.00
48563;BME280;34981;49.104;11.396;2023-04-27T04:29:14;97299.03;;;2.76;100.00
48563;BME280;34981;49.104;11.396;2023-04-27T04:31:43;97296.63;;;2.81;100.00
48563;BME280;34981;49.104;11.396;2023-04-27T04:34:10;97309.88;;;2.96;100.00
48563;BME280;34981;49.104;11.396;2023-04-27T04:36:37;97293.34;;;3.00;100.00
48563;BME280;34981;49.104;11.396;2023-04-27T04:39:04;97299.94;;;3.04;100.00
48563;BME280;34981;49.104;11.396;2023-04-27T04:41:32;97290.22;;;2.90;100.00
48563;BME280;34981;49.104;11.396;2023-04-27T04:43:59;97308.69;;;2.98;100.00
48563;BME280;34981;49.104;11.396;2023-04-27T04:46:27;97312.00;;;3.07;100.00
48563;BME280;34981;49.104;11.396;2023-04-27T04:48:55;97291.75;;;2.99;100.00
48563;BME280;34981;49.104;11.396;2023-04-27T04:51:22;97287.81;;;2.95;100.00
48563;BME280;34981;49.104;11.396;2023-04-27T04:53:49;97301.22;;;3.08;100.00
48563;BME280;34981;49.104;11.396;2023-04-27T04:56:17;97315.53;;;3.29;100.00
48563;BME280;34981;49.104;11.396;2023-04-27T04:58:44;97322.97;;;3.40;100.00
48563;BME280;34981;49.104;11.396;2023-04-27T05:01:11;97318.16;;;3.50;100.00
48563;BME280;34981;49.104;11.396;2023-04-27T05:03:38;97317.41;;;3.56;100.00
48563;BME280;34981;49.104;11.396;2023-04-27T05:06:06;97299.59;;;3.57;100.00
48563;BME280;34981;49.104;11.396;2023-04-27T05:08:33;97273.34;;;3.47;100.00
48563;BME280;34981;49.104;11.396;2023-04-27T05:11:00;97268.81;;;3.41;100.00
48563;BME280;34981;49.104;11.396;2023-04-27T05:13:27;97294.66;;;3.53;100.00
48563;BME280;34981;49.104;11.396;2023-04-27T05:15:54;97310.47;;;3.62;100.00
48563;BME280;34981;49.104;11.396;2023-04-27T05:18:22;97312.13;;;3.63;100.00
48563;BME280;34981;49.104;11.396;2023-04-27T05:20:49;97306.41;;;3.66;100.00
48563;BME280;34981;49.104;11.396;2023-04-27T05:23:16;97312.56;;;3.66;100.00
48563;BME280;34981;49.104;11.396;2023-04-27T05:25:43;97348.63;;;3.75;100.00
48563;BME280;34981;49.104;11.396;2023-04-27T05:28:10;97362.66;;;3.90;100.00
48563;BME280;34981;49.104;11.396;2023-04-27T05:30:37;97358.75;;;3.86;100.00
48563;BME280;34981;49.104;11.396;2023-04-27T05:33:04;97369.63;;;3.91;100.00
48563;BME280;34981;49.104;11.396;2023-04-27T05:35:32;97364.13;;;3.93;100.00
48563;BME280;34981;49.104;11.396;2023-04-27T05:37:59;97368.22;;;3.96;100.00
48563;BME280;34981;49.104;11.396;2023-04-27T05:40:26;97376.47;;;4.01;100.00
48563;BME280;34981;49.104;11.396;2023-04-27T05:42:54;97353.03;;;3.89;100.00
48563;BME280;34981;49.104;11.396;2023-04-27T05:45:21;97357.84;;;4.01;100.00
48563;BME280;34981;49.104;11.396;2023-04-27T05:47:48;97379.41;;;4.12;100.00
48563;BME280;34981;49.104;11.396;2023-04-27T05:50:15;97380.28;;;4.19;100.00
48563;BME280;34981;49.104;11.396;2023-04-27T05:52:42;97383.63;;;4.28;100.00
48563;BME280;34981;49.104;11.396;2023-04-27T05:55:10;97373.16;;;4.26;100.00
48563;BME280;34981;49.104;11.396;2023-04-27T05:57:37;97388.75;;;4.29;100.00
48563;BME280;34981;49.104;11.396;2023-04-27T06:00:04;97397.56;;;4.30;100.00
48563;BME280;34981;49.104;11.396;2023-04-27T06:02:39;97411.78;;;4.44;100.00
48563;BME280;34981;49.104;11.396;2023-04-27T06:05:06;97456.66;;;4.53;100.00
48563;BME280;34981;49.104;11.396;2023-04-27T06:07:34;97484.44;;;4.65;100.00
48563;BME280;34981;49.104;11.396;2023-04-27T06:10:03;97492.88;;;4.76;100.00
48563;BME280;34981;49.104;11.396;2023-04-27T06:12:30;97525.38;;;4.92;100.00
48563;BME280;34981;49.104;11.396;2023-04-27T06:14:58;97538.75;;;4.99;100.00
48563;BME280;34981;49.104;11.396;2023-04-27T06:17:25;97533.81;;;4.96;100.00
48563;BME280;34981;49.104;11.396;2023-04-27T06:19:52;97533.00;;;4.95;100.00
48563;BME280;34981;49.104;11.396;2023-04-27T06:22:19;97565.88;;;5.09;100.00
48563;BME280;34981;49.104;11.396;2023-04-27T06:24:46;97583.19;;;5.26;100.00
48563;BME280;34981;49.104;11.396;2023-04-27T06:27:13;97585.66;;;5.28;100.00
48563;BME280;34981;49.104;11.396;2023-04-27T06:29:40;97612.78;;;5.31;100.00
48563;BME280;34981;49.104;11.396;2023-04-27T06:32:07;97653.88;;;5.43;100.00
48563;BME280;34981;49.104;11.396;2023-04-27T06:34:35;97666.50;;;5.63;100.00
48563;BME280;34981;49.104;11.396;2023-04-27T06:37:02;97667.97;;;5.65;100.00
48563;BME280;34981;49.104;11.396;2023-04-27T06:39:29;97665.63;;;5.56;100.00
48563;BME280;34981;49.104;11.396;2023-04-27T06:41:58;97664.63;;;5.57;100.00
48563;BME280;34981;49.104;11.396;2023-04-27T06:44:25;97687.47;;;5.66;100.00
48563;BME280;34981;49.104;11.396;2023-04-27T06:46:52;97676.97;;;5.64;100.00
48563;BME280;34981;49.104;11.396;2023-04-27T06:49:19;97632.03;;;5.61;100.00
48563;BME280;34981;49.104;11.396;2023-04-27T06:51:47;97631.06;;;5.69;100.00
48563;BME280;34981;49.104;11.396;2023-04-27T06:54:14;97641.34;;;5.78;100.00
48563;BME280;34981;49.104;11.396;2023-04-27T06:56:41;97664.88;;;5.96;100.00
48563;BME280;34981;49.104;11.396;2023-04-27T06:59:08;97641.88;;;5.95;100.00
48563;BME280;34981;49.104;11.396;2023-04-27T07:01:36;97598.94;;;5.90;100.00
48563;BME280;34981;49.104;11.396;2023-04-27T07:04:03;97545.16;;;5.93;100.00
48563;BME280;34981;49.104;11.396;2023-04-27T07:06:31;97536.78;;;6.09;100.00
48563;BME280;34981;49.104;11.396;2023-04-27T07:08:58;97536.78;;;6.29;100.00
48563;BME280;34981;49.104;11.396;2023-04-27T07:11:25;97511.75;;;6.30;100.00
48563;BME280;34981;49.104;11.396;2023-04-27T07:13:52;97489.97;;;6.46;100.00
48563;BME280;34981;49.104;11.396;2023-04-27T07:16:20;97447.88;;;6.42;100.00
48563;BME280;34981;49.104;11.396;2023-04-27T07:18:47;97446.81;;;6.62;100.00
48563;BME280;34981;49.104;11.396;2023-04-27T07:21:14;97409.78;;;6.66;100.00
48563;BME280;34981;49.104;11.396;2023-04-27T07:23:41;97389.63;;;6.77;100.00
48563;BME280;34981;49.104;11.396;2023-04-27T07:26:08;97364.31;;;6.86;100.00
48563;BME280;34981;49.104;11.396;2023-04-27T07:28:36;97358.66;;;7.07;100.00
48563;BME280;34981;49.104;11.396;2023-04-27T07:31:04;97357.75;;;7.26;100.00
48563;BME280;34981;49.104;11.396;2023-04-27T07:33:32;97307.75;;;7.27;100.00
48563;BME280;34981;49.104;11.396;2023-04-27T07:35:59;97203.97;;;7.11;100.00
48563;BME280;34981;49.104;11.396;2023-04-27T07:38:28;97187.38;;;7.27;100.00
48563;BME280;34981;49.104;11.396;2023-04-27T07:40:57;97156.88;;;7.34;100.00
48563;BME280;34981;49.104;11.396;2023-04-27T07:43:24;97095.00;;;7.49;100.00
48563;BME280;34981;49.104;11.396;2023-04-27T07:45:52;96985.53;;;7.48;100.00
48563;BME280;34981;49.104;11.396;2023-04-27T07:48:20;96863.41;;;7.53;100.00
48563;BME280;34981;49.104;11.396;2023-04-27T07:50:49;96831.22;;;7.71;100.00
48563;BME280;34981;49.104;11.396;2023-04-27T07:53:16;96737.31;;;7.61;100.00
48563;BME280;34981;49.104;11.396;2023-04-27T07:55:43;96741.63;;;7.86;100.00
48563;BME280;34981;49.104;11.396;2023-04-27T07:58:11;96718.84;;;7.95;100.00
48563;BME280;34981;49.104;11.396;2023-04-27T08:00:38;96715.31;;;8.06;100.00
48563;BME280;34981;49.104;11.396;2023-04-27T08:03:05;96768.50;;;8.26;100.00
48563;BME280;34981;49.104;11.396;2023-04-27T08:05:34;96651.50;;;8.14;100.00
48563;BME280;34981;49.104;11.396;2023-04-27T08:08:01;96643.75;;;8.41;100.00
48563;BME280;34981;49.104;11.396;2023-04-27T08:10:29;96599.75;;;8.37;100.00
48563;BME280;34981;49.104;11.396;2023-04-27T08:12:56;96590.28;;;8.46;100.00
48563;BME280;34981;49.104;11.396;2023-04-27T08:15:23;96575.03;;;8.64;100.00
48563;BME280;34981;49.104;11.396;2023-04-27T08:17:50;96520.56;;;8.75;100.00
48563;BME280;34981;49.104;11.396;2023-04-27T08:20:17;96473.75;;;8.82;100.00
48563;BME280;34981;49.104;11.396;2023-04-27T08:22:44;96464.22;;;8.91;100.00
48563;BME280;34981;49.104;11.396;2023-04-27T08:25:11;96442.69;;;9.03;100.00
48563;BME280;34981;49.104;11.396;2023-04-27T08:27:38;96397.97;;;9.09;100.00
48563;BME280;34981;49.104;11.396;2023-04-27T08:30:06;96390.91;;;9.24;100.00
48563;BME280;34981;49.104;11.396;2023-04-27T08:32:34;96383.25;;;9.60;100.00
48563;BME280;34981;49.104;11.396;2023-04-27T08:35:01;96383.59;;;9.95;100.00
48563;BME280;34981;49.104;11.396;2023-04-27T08:37:29;96270.66;;;10.12;100.00
48563;BME280;34981;49.104;11.396;2023-04-27T08:39:56;96140.53;;;10.35;100.00
48563;BME280;34981;49.104;11.396;2023-04-27T08:42:23;96033.84;;;10.40;100.00
48563;BME280;34981;49.104;11.396;2023-04-27T08:44:50;95820.75;;;10.14;100.00
48563;BME280;34981;49.104;11.396;2023-04-27T08:47:17;95770.78;;;10.34;100.00
48563;BME280;34981;49.104;11.396;2023-04-27T08:50:01;95679.94;;;10.41;100.00
48563;BME280;34981;49.104;11.396;2023-04-27T08:52:29;95634.00;;;10.42;100.00
48563;BME280;34981;49.104;11.396;2023-04-27T08:54:56;95601.97;;;10.46;100.00
48563;BME280;34981;49.104;11.396;2023-04-27T08:57:24;95574.31;;;10.84;100.00
48563;BME280;34981;49.104;11.396;2023-04-27T09:00:00;95575.03;;;11.00;100.00
48563;BME280;34981;49.104;11.396;2023-04-27T09:02:32;95537.31;;;11.34;100.00
48563;BME280;34981;49.104;11.396;2023-04-27T09:05:00;95487.06;;;11.29;100.00
48563;BME280;34981;49.104;11.396;2023-04-27T09:07:29;95417.72;;;11.45;100.00
48563;BME280;34981;49.104;11.396;2023-04-27T09:10:03;95329.03;;;11.35;100.00
48563;BME280;34981;49.104;11.396;2023-04-27T09:12:30;95131.03;;;10.97;100.00
48563;BME280;34981;49.104;11.396;2023-04-27T09:15:00;95103.00;;;11.35;100.00
48563;BME280;34981;49.104;11.396;2023-04-27T09:17:30;95038.81;;;11.28;100.00
48563;BME280;34981;49.104;11.396;2023-04-27T09:20:03;95045.38;;;11.82;100.00
48563;BME280;34981;49.104;11.396;2023-04-27T09:22:44;94973.66;;;11.73;100.00
48563;BME280;34981;49.104;11.396;2023-04-27T09:25:25;94942.53;;;11.94;100.00
48563;BME280;34981;49.104;11.396;2023-04-27T09:27:52;94884.09;;;12.17;100.00
48563;BME280;34981;49.104;11.396;2023-04-27T09:30:20;94826.88;;;12.11;100.00
48563;BME280;34981;49.104;11.396;2023-04-27T09:32:57;94762.22;;;11.89;100.00
48563;BME280;34981;49.104;11.396;2023-04-27T09:35:26;94729.75;;;12.16;100.00
48563;BME280;34981;49.104;11.396;2023-04-27T09:37:53;94700.13;;;12.56;100.00
48563;BME280;34981;49.104;11.396;2023-04-27T09:40:21;94678.59;;;12.73;100.00
48563;BME280;34981;49.104;11.396;2023-04-27T09:42:59;94632.16;;;12.19;100.00
48563;BME280;34981;49.104;11.396;2023-04-27T09:45:31;94623.38;;;12.05;100.00
48563;BME280;34981;49.104;11.396;2023-04-27T09:47:59;94608.47;;;12.56;100.00
48563;BME280;34981;49.104;11.396;2023-04-27T09:50:27;94589.00;;;12.84;100.00
48563;BME280;34981;49.104;11.396;2023-04-27T09:52:54;94589.78;;;13.02;100.00
48563;BME280;34981;49.104;11.396;2023-04-27T09:55:24;94583.50;;;12.24;100.00
48563;BME280;34981;49.104;11.396;2023-04-27T09:58:13;94569.53;;;12.22;100.00
48563;BME280;34981;49.104;11.396;2023-04-27T10:08:35;94611.53;;;13.23;100.00
48563;BME280;34981;49.104;11.396;2023-04-27T10:11:12;94640.44;;;13.31;100.00
48563;BME280;34981;49.104;11.396;2023-04-27T10:13:39;94648.53;;;13.57;100.00
48563;BME280;34981;49.104;11.396;2023-04-27T10:16:18;94673.63;;;13.32;100.00
48563;BME280;34981;49.104;11.396;2023-04-27T10:18:54;94652.97;;;13.53;100.00
48563;BME280;34981;49.104;11.396;2023-04-27T10:21:25;94671.50;;;13.89;100.00
48563;BME280;34981;49.104;11.396;2023-04-27T10:23:53;94670.53;;;14.02;100.00
48563;BME280;34981;49.104;11.396;2023-04-27T10:26:24;94690.06;;;14.08;100.00
48563;BME280;34981;49.104;11.396;2023-04-27T10:28:58;94694.56;;;14.41;100.00
48563;BME280;34981;49.104;11.396;2023-04-27T10:31:30;94720.59;;;13.31;100.00
48563;BME280;34981;49.104;11.396;2023-04-27T10:36:37;94731.69;;;14.07;100.00
48563;BME280;34981;49.104;11.396;2023-04-27T10:39:17;94736.63;;;14.13;100.00
48563;BME280;34981;49.104;11.396;2023-04-27T10:41:48;94748.56;;;13.86;100.00
48563;BME280;34981;49.104;11.396;2023-04-27T10:44:25;94754.75;;;13.95;100.00
48563;BME280;34981;49.104;11.396;2023-04-27T10:46:55;94736.81;;;14.63;100.00
48563;BME280;34981;49.104;11.396;2023-04-27T10:49:23;94758.63;;;14.58;100.00
48563;BME280;34981;49.104;11.396;2023-04-27T10:51:50;94769.16;;;14.43;100.00
48563;BME280;34981;49.104;11.396;2023-04-27T10:54:17;94761.47;;;14.62;100.00
48563;BME280;34981;49.104;11.396;2023-04-27T10:56:45;94767.88;;;15.25;100.00
48563;BME280;34981;49.104;11.396;2023-04-27T10:59:12;94808.66;;;14.90;100.00
48563;BME280;34981;49.104;11.396;2023-04-27T11:01:39;94831.16;;;14.56;100.00
48563;BME280;34981;49.104;11.396;2023-04-27T11:04:06;94856.91;;;14.79;100.00
48563;BME280;34981;49.104;11.396;2023-04-27T11:06:40;94832.38;;;14.85;100.00
48563;BME280;34981;49.104;11.396;2023-04-27T11:09:07;94845.22;;;15.05;100.00
48563;BME280;34981;49.104;11.396;2023-04-27T11:11:36;94875.44;;;15.07;100.00
48563;BME280;34981;49.104;11.396;2023-04-27T11:14:03;94911.00;;;14.79;100.00
48563;BME280;34981;49.104;11.396;2023-04-27T11:16:30;94911.59;;;15.02;100.00
48563;BME280;34981;49.104;11.396;2023-04-27T11:19:04;94940.75;;;14.88;100.00
48563;BME280;34981;49.104;11.396;2023-04-27T11:21:32;94941.38;;;14.94;100.00
48563;BME280;34981;49.104;11.396;2023-04-27T11:24:03;94984.06;;;14.45;100.00
48563;BME280;34981;49.104;11.396;2023-04-27T11:26:31;95004.16;;;14.04;100.00
48563;BME280;34981;49.104;11.396;2023-04-27T11:28:59;95021.41;;;13.47;100.00
48563;BME280;34981;49.104;11.396;2023-04-27T11:31:28;95001.19;;;14.23;100.00
48563;BME280;34981;49.104;11.396;2023-04-27T11:34:05;95044.75;;;13.82;100.00
48563;BME280;34981;49.104;11.396;2023-04-27T11:36:33;95050.31;;;13.02;100.00
48563;BME280;34981;49.104;11.396;2023-04-27T11:39:02;95052.56;;;13.22;100.00
48563;BME280;34981;49.104;11.396;2023-04-27T11:41:34;95033.06;;;13.56;100.00
48563;BME280;34981;49.104;11.396;2023-04-27T11:44:05;95015.06;;;14.39;100.00
48563;BME280;34981;49.104;11.396;2023-04-27T11:46:36;95014.28;;;14.73;100.00
48563;BME280;34981;49.104;11.396;2023-04-27T11:49:04;95027.66;;;14.69;100.00
48563;BME280;34981;49.104;11.396;2023-04-27T11:51:31;95085.16;;;13.87;100.00
48563;BME280;34981;49.104;11.396;2023-04-27T11:54:03;95111.69;;;13.85;100.00
48563;BME280;34981;49.104;11.396;2023-04-27T11:56:37;95152.22;;;13.85;100.00
48563;BME280;34981;49.104;11.396;2023-04-27T11:59:04;95126.66;;;14.31;100.00
48563;BME280;34981;49.104;11.396;2023-04-27T12:01:32;95141.91;;;14.66;100.00
48563;BME280;34981;49.104;11.396;2023-04-27T12:04:04;95149.47;;;15.04;100.00
48563;BME280;34981;49.104;11.396;2023-04-27T12:06:32;95175.25;;;15.10;100.00
48563;BME280;34981;49.104;11.396;2023-04-27T12:08:59;95185.03;;;14.71;100.00
48563;BME280;34981;49.104;11.396;2023-04-27T12:11:27;95188.16;;;15.22;100.00
48563;BME280;34981;49.104;11.396;2023-04-27T12:13:54;95224.44;;;14.95;100.00
48563;BME280;34981;49.104;11.396;2023-04-27T12:16:22;95303.38;;;14.13;100.00
48563;BME280;34981;49.104;11.396;2023-04-27T12:18:49;95305.66;;;14.41;100.00
48563;BME280;34981;49.104;11.396;2023-04-27T12:21:17;95328.81;;;14.12;100.00
48563;BME280;34981;49.104;11.396;2023-04-27T12:23:44;95319.25;;;14.50;100.00
48563;BME280;34981;49.104;11.396;2023-04-27T12:26:11;95321.63;;;14.07;100.00
48563;BME280;34981;49.104;11.396;2023-04-27T12:28:41;95331.69;;;13.57;100.00
48563;BME280;34981;49.104;11.396;2023-04-27T12:31:11;95307.19;;;14.12;100.00
48563;BME280;34981;49.104;11.396;2023-04-27T12:33:39;95323.88;;;13.91;100.00
48563;BME280;34981;49.104;11.396;2023-04-27T12:36:06;95360.34;;;13.80;100.00
48563;BME280;34981;49.104;11.396;2023-04-27T12:38:33;95346.25;;;14.28;100.00
48563;BME280;34981;49.104;11.396;2023-04-27T12:41:00;95349.22;;;14.62;100.00
48563;BME280;34981;49.104;11.396;2023-04-27T12:43:28;95371.94;;;14.84;100.00
48563;BME280;34981;49.104;11.396;2023-04-27T12:45:55;95390.06;;;14.83;100.00
48563;BME280;34981;49.104;11.396;2023-04-27T12:48:22;95462.81;;;14.62;100.00
48563;BME280;34981;49.104;11.396;2023-04-27T12:50:49;95487.69;;;14.64;100.00
48563;BME280;34981;49.104;11.396;2023-04-27T12:53:16;95506.56;;;14.78;100.00
48563;BME280;34981;49.104;11.396;2023-04-27T12:55:44;95526.78;;;14.58;100.00
48563;BME280;34981;49.104;11.396;2023-04-27T12:58:12;95581.78;;;13.85;100.00
48563;BME280;34981;49.104;11.396;2023-04-27T13:00:40;95585.41;;;14.08;100.00
48563;BME280;34981;49.104;11.396;2023-04-27T13:03:07;95613.31;;;14.03;100.00